sensor_id;sensor_type;location;lat;lon;timestamp;P1;durP1;ratioP1;P2;durP2;ratioP2
20245;SDS011;10281;54.406;18.556;2022-09-02T00:01:27;3.33;;;1.80;;
20245;SDS011;10281;54.406;18.556;2022-09-02T00:03:58;2.93;;;1.77;;
20245;SDS011;10281;54.406;18.556;2022-09-02T00:06:28;2.33;;;1.80;;
20245;SDS011;10281;54.406;18.556;2022-09-02T00:08:56;2.50;;;1.93;;
20245;SDS011;10281;54.406;18.556;2022-09-02T00:11:24;3.47;;;1.97;;
20245;SDS011;10281;54.406;18.556;2022-09-02T00:13:54;3.90;;;1.93;;
20245;SDS011;10281;54.406;18.556;2022-09-02T00:16:22;3.43;;;2.10;;
20245;SDS011;10281;54.406;18.556;2022-09-02T00:18:50;3.57;;;2.30;;
20245;SDS011;10281;54.406;18.556;2022-09-02T00:21:18;3.57;;;2.20;;
20245;SDS011;10281;54.406;18.556;2022-09-02T00:23:45;2.33;;;2.07;;
20245;SDS011;10281;54.406;18.556;2022-09-02T00:26:13;3.47;;;2.10;;
20245;SDS011;10281;54.406;18.556;2022-09-02T00:28:40;3.70;;;1.97;;
20245;SDS011;10281;54.406;18.556;2022-09-02T00:31:08;3.17;;;2.30;;
20245;SDS011;10281;54.406;18.556;2022-09-02T00:33:35;2.43;;;1.80;;
20245;SDS011;10281;54.406;18.556;2022-09-02T00:36:02;2.93;;;2.00;;
20245;SDS011;10281;54.406;18.556;2022-09-02T00:38:30;2.10;;;1.90;;
20245;SDS011;10281;54.406;18.556;2022-09-02T00:40:59;3.17;;;2.17;;
20245;SDS011;10281;54.406;18.556;2022-09-02T00:46:05;3.10;;;2.00;;
20245;SDS011;10281;54.406;18.556;2022-09-02T00:48:32;3.37;;;1.93;;
20245;SDS011;10281;54.406;18.556;2022-09-02T00:51:00;4.20;;;2.17;;
20245;SDS011;10281;54.406;18.556;2022-09-02T00:53:28;4.63;;;2.20;;
20245;SDS011;10281;54.406;18.556;2022-09-02T00:55:56;3.10;;;2.27;;
20245;SDS011;10281;54.406;18.556;2022-09-02T00:58:26;3.60;;;2.23;;
20245;SDS011;10281;54.406;18.556;2022-09-02T01:00:56;3.90;;;2.10;;
20245;SDS011;10281;54.406;18.556;2022-09-02T01:03:26;2.77;;;2.20;;
20245;SDS011;10281;54.406;18.556;2022-09-02T01:05:54;2.83;;;2.10;;
20245;SDS011;10281;54.406;18.556;2022-09-02T01:08:25;2.63;;;2.10;;
20245;SDS011;10281;54.406;18.556;2022-09-02T01:10:54;3.87;;;2.17;;
20245;SDS011;10281;54.406;18.556;2022-09-02T01:13:25;5.00;;;2.33;;
20245;SDS011;10281;54.406;18.556;2022-09-02T01:15:55;2.90;;;2.20;;
20245;SDS011;10281;54.406;18.556;2022-09-02T01:18:25;2.67;;;2.30;;
20245;SDS011;10281;54.406;18.556;2022-09-02T01:20:54;3.63;;;2.20;;
20245;SDS011;10281;54.406;18.556;2022-09-02T01:23:24;3.70;;;2.07;;
20245;SDS011;10281;54.406;18.556;2022-09-02T01:25:53;3.50;;;2.27;;
20245;SDS011;10281;54.406;18.556;2022-09-02T01:28:19;3.47;;;1.93;;
20245;SDS011;10281;54.406;18.556;2022-09-02T01:30:49;3.47;;;2.17;;
20245;SDS011;10281;54.406;18.556;2022-09-02T01:33:17;3.23;;;2.10;;
20245;SDS011;10281;54.406;18.556;2022-09-02T01:35:46;3.63;;;2.63;;
20245;SDS011;10281;54.406;18.556;2022-09-02T01:38:14;2.33;;;2.00;;
20245;SDS011;10281;54.406;18.556;2022-09-02T01:40:41;4.73;;;2.30;;
20245;SDS011;10281;54.406;18.556;2022-09-02T01:43:10;3.37;;;2.03;;
20245;SDS011;10281;54.406;18.556;2022-09-02T01:45:39;2.77;;;2.20;;
20245;SDS011;10281;54.406;18.556;2022-09-02T01:48:08;3.40;;;2.10;;
20245;SDS011;10281;54.406;18.556;2022-09-02T01:50:36;5.07;;;2.73;;
20245;SDS011;10281;54.406;18.556;2022-09-02T01:53:04;2.73;;;2.30;;
20245;SDS011;10281;54.406;18.556;2022-09-02T01:55:31;2.83;;;2.00;;
20245;SDS011;10281;54.406;18.556;2022-09-02T01:57:58;4.07;;;2.40;;
20245;SDS011;10281;54.406;18.556;2022-09-02T02:00:25;5.20;;;1.90;;
20245;SDS011;10281;54.406;18.556;2022-09-02T02:02:52;3.53;;;2.27;;
20245;SDS011;10281;54.406;18.556;2022-09-02T02:05:19;3.27;;;2.13;;
20245;SDS011;10281;54.406;18.556;2022-09-02T02:07:47;4.70;;;2.30;;
20245;SDS011;10281;54.406;18.556;2022-09-02T02:10:14;3.60;;;2.30;;
20245;SDS011;10281;54.406;18.556;2022-09-02T02:12:43;4.63;;;2.30;;
20245;SDS011;10281;54.406;18.556;2022-09-02T02:15:10;3.27;;;2.10;;
20245;SDS011;10281;54.406;18.556;2022-09-02T02:17:39;5.70;;;2.43;;
20245;SDS011;10281;54.406;18.556;2022-09-02T02:20:07;3.33;;;2.40;;
20245;SDS011;10281;54.406;18.556;2022-09-02T02:22:35;4.63;;;1.97;;
20245;SDS011;10281;54.406;18.556;2022-09-02T02:25:03;3.13;;;2.30;;
20245;SDS011;10281;54.406;18.556;2022-09-02T02:27:30;2.87;;;2.00;;
20245;SDS011;10281;54.406;18.556;2022-09-02T02:29:57;2.87;;;1.93;;
20245;SDS011;10281;54.406;18.556;2022-09-02T02:32:24;3.77;;;2.30;;
20245;SDS011;10281;54.406;18.556;2022-09-02T02:34:51;6.03;;;2.03;;
20245;SDS011;10281;54.406;18.556;2022-09-02T02:37:19;2.80;;;1.80;;
20245;SDS011;10281;54.406;18.556;2022-09-02T02:39:46;3.40;;;2.20;;
20245;SDS011;10281;54.406;18.556;2022-09-02T02:42:12;4.57;;;2.10;;
20245;SDS011;10281;54.406;18.556;2022-09-02T02:44:39;3.80;;;2.00;;
20245;SDS011;10281;54.406;18.556;2022-09-02T02:47:06;2.47;;;1.80;;
20245;SDS011;10281;54.406;18.556;2022-09-02T02:49:39;3.70;;;2.10;;
20245;SDS011;10281;54.406;18.556;2022-09-02T02:52:09;2.93;;;2.00;;
20245;SDS011;10281;54.406;18.556;2022-09-02T02:54:37;3.43;;;1.90;;
20245;SDS011;10281;54.406;18.556;2022-09-02T02:57:05;2.07;;;1.80;;
20245;SDS011;10281;54.406;18.556;2022-09-02T02:59:33;4.17;;;1.97;;
20245;SDS011;10281;54.406;18.556;2022-09-02T03:02:01;2.60;;;1.67;;
20245;SDS011;10281;54.406;18.556;2022-09-02T03:04:29;2.60;;;1.80;;
20245;SDS011;10281;54.406;18.556;2022-09-02T03:06:56;2.47;;;1.70;;
20245;SDS011;10281;54.406;18.556;2022-09-02T03:09:23;1.90;;;1.50;;
20245;SDS011;10281;54.406;18.556;2022-09-02T03:11:50;4.87;;;1.83;;
20245;SDS011;10281;54.406;18.556;2022-09-02T03:14:16;2.23;;;1.80;;
20245;SDS011;10281;54.406;18.556;2022-09-02T03:16:43;2.83;;;1.57;;
20245;SDS011;10281;54.406;18.556;2022-09-02T03:19:10;4.50;;;1.50;;
20245;SDS011;10281;54.406;18.556;2022-09-02T03:21:39;1.57;;;1.20;;
20245;SDS011;10281;54.406;18.556;2022-09-02T03:24:06;1.47;;;1.37;;
20245;SDS011;10281;54.406;18.556;2022-09-02T03:26:34;2.00;;;1.40;;
20245;SDS011;10281;54.406;18.556;2022-09-02T03:29:00;2.00;;;1.60;;
20245;SDS011;10281;54.406;18.556;2022-09-02T03:31:28;1.97;;;1.40;;
20245;SDS011;10281;54.406;18.556;2022-09-02T03:33:55;1.50;;;1.40;;
20245;SDS011;10281;54.406;18.556;2022-09-02T03:39:06;2.13;;;1.40;;
20245;SDS011;10281;54.406;18.556;2022-09-02T03:41:33;2.00;;;1.10;;
20245;SDS011;10281;54.406;18.556;2022-09-02T03:44:00;2.53;;;1.40;;
20245;SDS011;10281;54.406;18.556;2022-09-02T03:46:26;2.50;;;1.40;;
20245;SDS011;10281;54.406;18.556;2022-09-02T03:48:53;3.60;;;1.37;;
20245;SDS011;10281;54.406;18.556;2022-09-02T03:51:20;1.83;;;1.50;;
20245;SDS011;10281;54.406;18.556;2022-09-02T03:53:48;2.33;;;1.70;;
20245;SDS011;10281;54.406;18.556;2022-09-02T03:56:15;1.80;;;1.37;;
20245;SDS011;10281;54.406;18.556;2022-09-02T03:58:42;2.83;;;1.23;;
20245;SDS011;10281;54.406;18.556;2022-09-02T04:01:12;1.43;;;1.13;;
20245;SDS011;10281;54.406;18.556;2022-09-02T04:03:41;1.37;;;1.20;;
20245;SDS011;10281;54.406;18.556;2022-09-02T04:06:09;2.73;;;1.40;;
20245;SDS011;10281;54.406;18.556;2022-09-02T04:08:39;2.07;;;1.37;;
20245;SDS011;10281;54.406;18.556;2022-09-02T04:11:07;1.53;;;1.40;;
20245;SDS011;10281;54.406;18.556;2022-09-02T04:13:35;1.67;;;1.23;;
20245;SDS011;10281;54.406;18.556;2022-09-02T04:16:05;2.30;;;1.20;;
20245;SDS011;10281;54.406;18.556;2022-09-02T04:18:38;2.50;;;1.40;;
20245;SDS011;10281;54.406;18.556;2022-09-02T04:21:04;3.27;;;1.60;;
20245;SDS011;10281;54.406;18.556;2022-09-02T04:23:31;2.60;;;1.40;;
20245;SDS011;10281;54.406;18.556;2022-09-02T04:26:02;1.93;;;1.47;;
20245;SDS011;10281;54.406;18.556;2022-09-02T04:28:28;3.43;;;1.33;;
20245;SDS011;10281;54.406;18.556;2022-09-02T04:30:55;3.07;;;1.50;;
20245;SDS011;10281;54.406;18.556;2022-09-02T04:33:22;3.57;;;1.30;;
20245;SDS011;10281;54.406;18.556;2022-09-02T04:35:48;1.53;;;1.20;;
20245;SDS011;10281;54.406;18.556;2022-09-02T04:38:17;2.80;;;1.50;;
20245;SDS011;10281;54.406;18.556;2022-09-02T04:40:44;3.17;;;1.60;;
20245;SDS011;10281;54.406;18.556;2022-09-02T04:43:12;1.93;;;1.27;;
20245;SDS011;10281;54.406;18.556;2022-09-02T04:45:40;1.83;;;1.30;;
20245;SDS011;10281;54.406;18.556;2022-09-02T04:48:08;2.77;;;1.30;;
20245;SDS011;10281;54.406;18.556;2022-09-02T04:50:36;3.43;;;1.60;;
20245;SDS011;10281;54.406;18.556;2022-09-02T04:53:05;3.07;;;1.47;;
20245;SDS011;10281;54.406;18.556;2022-09-02T04:55:32;2.23;;;1.20;;
20245;SDS011;10281;54.406;18.556;2022-09-02T04:57:59;1.80;;;1.20;;
20245;SDS011;10281;54.406;18.556;2022-09-02T05:00:26;1.70;;;1.20;;
20245;SDS011;10281;54.406;18.556;2022-09-02T05:02:54;1.73;;;1.10;;
20245;SDS011;10281;54.406;18.556;2022-09-02T05:05:21;1.10;;;0.97;;
20245;SDS011;10281;54.406;18.556;2022-09-02T05:07:48;2.53;;;1.20;;
20245;SDS011;10281;54.406;18.556;2022-09-02T05:10:16;2.17;;;1.30;;
20245;SDS011;10281;54.406;18.556;2022-09-02T05:12:42;2.57;;;1.60;;
20245;SDS011;10281;54.406;18.556;2022-09-02T05:15:09;2.57;;;1.50;;
20245;SDS011;10281;54.406;18.556;2022-09-02T05:17:36;2.93;;;1.47;;
20245;SDS011;10281;54.406;18.556;2022-09-02T05:20:03;2.97;;;1.50;;
20245;SDS011;10281;54.406;18.556;2022-09-02T05:22:33;5.57;;;1.97;;
20245;SDS011;10281;54.406;18.556;2022-09-02T05:25:00;3.30;;;1.77;;
20245;SDS011;10281;54.406;18.556;2022-09-02T05:27:27;8.83;;;1.67;;
20245;SDS011;10281;54.406;18.556;2022-09-02T05:29:55;2.57;;;1.60;;
20245;SDS011;10281;54.406;18.556;2022-09-02T05:32:24;2.47;;;1.40;;
20245;SDS011;10281;54.406;18.556;2022-09-02T05:34:52;4.10;;;1.80;;
20245;SDS011;10281;54.406;18.556;2022-09-02T05:37:20;2.77;;;1.60;;
20245;SDS011;10281;54.406;18.556;2022-09-02T05:39:49;2.50;;;1.67;;
20245;SDS011;10281;54.406;18.556;2022-09-02T05:42:16;2.50;;;1.60;;
20245;SDS011;10281;54.406;18.556;2022-09-02T05:44:44;3.30;;;1.50;;
20245;SDS011;10281;54.406;18.556;2022-09-02T05:47:12;2.07;;;1.40;;
20245;SDS011;10281;54.406;18.556;2022-09-02T05:49:38;2.93;;;1.40;;
20245;SDS011;10281;54.406;18.556;2022-09-02T05:52:05;1.50;;;1.10;;
20245;SDS011;10281;54.406;18.556;2022-09-02T05:54:35;4.60;;;1.43;;
20245;SDS011;10281;54.406;18.556;2022-09-02T05:57:05;2.50;;;1.03;;
20245;SDS011;10281;54.406;18.556;2022-09-02T05:59:34;1.73;;;1.40;;
20245;SDS011;10281;54.406;18.556;2022-09-02T06:02:03;1.83;;;1.17;;
20245;SDS011;10281;54.406;18.556;2022-09-02T06:04:35;2.07;;;1.30;;
20245;SDS011;10281;54.406;18.556;2022-09-02T06:07:02;1.50;;;1.10;;
20245;SDS011;10281;54.406;18.556;2022-09-02T06:09:29;1.27;;;1.07;;
20245;SDS011;10281;54.406;18.556;2022-09-02T06:11:56;2.13;;;1.20;;
20245;SDS011;10281;54.406;18.556;2022-09-02T06:14:23;2.40;;;1.10;;
20245;SDS011;10281;54.406;18.556;2022-09-02T06:16:50;4.67;;;1.60;;
20245;SDS011;10281;54.406;18.556;2022-09-02T06:19:19;3.93;;;1.70;;
20245;SDS011;10281;54.406;18.556;2022-09-02T06:21:47;4.10;;;1.30;;
20245;SDS011;10281;54.406;18.556;2022-09-02T06:24:14;3.70;;;1.40;;
20245;SDS011;10281;54.406;18.556;2022-09-02T06:26:41;2.63;;;1.20;;
20245;SDS011;10281;54.406;18.556;2022-09-02T06:29:09;2.20;;;1.57;;
20245;SDS011;10281;54.406;18.556;2022-09-02T06:31:36;1.50;;;1.23;;
20245;SDS011;10281;54.406;18.556;2022-09-02T06:34:04;4.40;;;1.43;;
20245;SDS011;10281;54.406;18.556;2022-09-02T06:36:31;2.83;;;1.50;;
20245;SDS011;10281;54.406;18.556;2022-09-02T06:38:58;3.70;;;1.40;;
20245;SDS011;10281;54.406;18.556;2022-09-02T06:41:27;3.33;;;1.43;;
20245;SDS011;10281;54.406;18.556;2022-09-02T06:43:56;1.93;;;1.43;;
20245;SDS011;10281;54.406;18.556;2022-09-02T06:46:28;3.43;;;1.30;;
20245;SDS011;10281;54.406;18.556;2022-09-02T06:48:57;2.87;;;1.37;;
20245;SDS011;10281;54.406;18.556;2022-09-02T06:51:28;3.30;;;1.50;;
20245;SDS011;10281;54.406;18.556;2022-09-02T06:53:55;3.67;;;1.60;;
20245;SDS011;10281;54.406;18.556;2022-09-02T06:56:22;4.60;;;1.53;;
20245;SDS011;10281;54.406;18.556;2022-09-02T06:58:51;2.97;;;1.57;;
20245;SDS011;10281;54.406;18.556;2022-09-02T07:01:20;3.47;;;1.50;;
20245;SDS011;10281;54.406;18.556;2022-09-02T07:03:49;3.83;;;1.70;;
20245;SDS011;10281;54.406;18.556;2022-09-02T07:06:21;2.60;;;1.40;;
20245;SDS011;10281;54.406;18.556;2022-09-02T07:08:49;3.93;;;1.70;;
20245;SDS011;10281;54.406;18.556;2022-09-02T07:11:18;5.20;;;1.90;;
20245;SDS011;10281;54.406;18.556;2022-09-02T07:13:46;2.73;;;1.50;;
20245;SDS011;10281;54.406;18.556;2022-09-02T07:16:13;3.60;;;1.37;;
20245;SDS011;10281;54.406;18.556;2022-09-02T07:18:41;4.27;;;1.33;;
20245;SDS011;10281;54.406;18.556;2022-09-02T07:21:09;2.73;;;1.50;;
20245;SDS011;10281;54.406;18.556;2022-09-02T07:23:36;3.73;;;1.30;;
20245;SDS011;10281;54.406;18.556;2022-09-02T07:26:09;2.10;;;1.40;;
20245;SDS011;10281;54.406;18.556;2022-09-02T07:28:41;4.23;;;1.60;;
20245;SDS011;10281;54.406;18.556;2022-09-02T07:31:09;3.10;;;1.63;;
20245;SDS011;10281;54.406;18.556;2022-09-02T07:33:36;5.07;;;2.90;;
20245;SDS011;10281;54.406;18.556;2022-09-02T07:36:04;2.57;;;1.40;;
20245;SDS011;10281;54.406;18.556;2022-09-02T07:38:32;2.60;;;1.13;;
20245;SDS011;10281;54.406;18.556;2022-09-02T07:40:59;1.53;;;1.17;;
20245;SDS011;10281;54.406;18.556;2022-09-02T07:43:26;1.17;;;0.90;;
20245;SDS011;10281;54.406;18.556;2022-09-02T07:45:55;4.10;;;1.30;;
20245;SDS011;10281;54.406;18.556;2022-09-02T07:48:25;2.83;;;1.20;;
20245;SDS011;10281;54.406;18.556;2022-09-02T07:50:52;1.80;;;1.10;;
20245;SDS011;10281;54.406;18.556;2022-09-02T07:53:20;2.53;;;1.10;;
20245;SDS011;10281;54.406;18.556;2022-09-02T07:55:48;1.20;;;0.93;;
20245;SDS011;10281;54.406;18.556;2022-09-02T07:58:15;2.50;;;1.00;;
20245;SDS011;10281;54.406;18.556;2022-09-02T08:00:45;1.97;;;1.00;;
20245;SDS011;10281;54.406;18.556;2022-09-02T08:03:12;2.57;;;1.00;;
20245;SDS011;10281;54.406;18.556;2022-09-02T08:05:39;1.63;;;0.87;;
20245;SDS011;10281;54.406;18.556;2022-09-02T08:08:06;1.60;;;0.90;;
20245;SDS011;10281;54.406;18.556;2022-09-02T08:10:34;1.87;;;0.80;;
20245;SDS011;10281;54.406;18.556;2022-09-02T08:13:03;0.97;;;0.57;;
20245;SDS011;10281;54.406;18.556;2022-09-02T08:15:31;1.43;;;0.63;;
20245;SDS011;10281;54.406;18.556;2022-09-02T08:17:59;2.00;;;0.73;;
20245;SDS011;10281;54.406;18.556;2022-09-02T08:20:25;1.00;;;0.90;;
20245;SDS011;10281;54.406;18.556;2022-09-02T08:22:54;1.77;;;0.70;;
20245;SDS011;10281;54.406;18.556;2022-09-02T08:25:22;0.83;;;0.67;;
20245;SDS011;10281;54.406;18.556;2022-09-02T08:27:48;0.93;;;0.80;;
20245;SDS011;10281;54.406;18.556;2022-09-02T08:30:15;1.07;;;0.80;;
20245;SDS011;10281;54.406;18.556;2022-09-02T08:32:42;0.80;;;0.67;;
20245;SDS011;10281;54.406;18.556;2022-09-02T08:35:08;1.30;;;0.77;;
20245;SDS011;10281;54.406;18.556;2022-09-02T08:37:36;1.60;;;0.80;;
20245;SDS011;10281;54.406;18.556;2022-09-02T08:40:04;3.47;;;0.90;;
20245;SDS011;10281;54.406;18.556;2022-09-02T08:42:36;1.40;;;0.80;;
20245;SDS011;10281;54.406;18.556;2022-09-02T08:45:07;1.00;;;0.83;;
20245;SDS011;10281;54.406;18.556;2022-09-02T08:47:37;1.90;;;0.80;;
20245;SDS011;10281;54.406;18.556;2022-09-02T08:50:10;1.30;;;0.80;;
20245;SDS011;10281;54.406;18.556;2022-09-02T08:52:46;2.40;;;1.20;;
20245;SDS011;10281;54.406;18.556;2022-09-02T08:56:05;1.83;;;1.20;;
20245;SDS011;10281;54.406;18.556;2022-09-02T08:58:22;0.80;;;0.80;;
20245;SDS011;10281;54.406;18.556;2022-09-02T09:06:43;0.97;;;0.70;;
20245;SDS011;10281;54.406;18.556;2022-09-02T09:09:32;2.07;;;0.53;;
20245;SDS011;10281;54.406;18.556;2022-09-02T09:18:12;0.70;;;0.70;;
20245;SDS011;10281;54.406;18.556;2022-09-02T09:20:42;1.83;;;0.70;;
20245;SDS011;10281;54.406;18.556;2022-09-02T09:23:41;0.80;;;0.60;;
20245;SDS011;10281;54.406;18.556;2022-09-02T09:25:57;0.50;;;0.50;;
20245;SDS011;10281;54.406;18.556;2022-09-02T09:28:26;0.60;;;0.60;;
20245;SDS011;10281;54.406;18.556;2022-09-02T09:30:53;1.83;;;0.57;;
20245;SDS011;10281;54.406;18.556;2022-09-02T09:33:20;0.43;;;0.40;;
20245;SDS011;10281;54.406;18.556;2022-09-02T09:35:52;0.80;;;0.60;;
20245;SDS011;10281;54.406;18.556;2022-09-02T09:38:30;0.90;;;0.60;;
20245;SDS011;10281;54.406;18.556;2022-09-02T09:43:45;2.20;;;0.50;;
20245;SDS011;10281;54.406;18.556;2022-09-02T09:48:55;3.50;;;0.87;;
20245;SDS011;10281;54.406;18.556;2022-09-02T09:51:22;1.37;;;0.63;;
20245;SDS011;10281;54.406;18.556;2022-09-02T09:53:48;1.90;;;0.60;;
20245;SDS011;10281;54.406;18.556;2022-09-02T09:56:23;0.80;;;0.50;;
20245;SDS011;10281;54.406;18.556;2022-09-02T09:58:51;0.50;;;0.50;;
20245;SDS011;10281;54.406;18.556;2022-09-02T10:01:21;1.23;;;0.90;;
20245;SDS011;10281;54.406;18.556;2022-09-02T10:03:52;1.87;;;1.40;;
20245;SDS011;10281;54.406;18.556;2022-09-02T10:06:22;2.00;;;1.80;;
20245;SDS011;10281;54.406;18.556;2022-09-02T10:08:52;0.80;;;0.80;;
20245;SDS011;10281;54.406;18.556;2022-09-02T10:11:22;0.80;;;0.63;;
20245;SDS011;10281;54.406;18.556;2022-09-02T10:13:57;1.13;;;0.50;;
20245;SDS011;10281;54.406;18.556;2022-09-02T10:16:32;1.33;;;0.40;;
20245;SDS011;10281;54.406;18.556;2022-09-02T10:21:49;2.00;;;0.53;;
20245;SDS011;10281;54.406;18.556;2022-09-02T10:24:26;0.50;;;0.50;;
20245;SDS011;10281;54.406;18.556;2022-09-02T10:26:56;2.00;;;0.80;;
20245;SDS011;10281;54.406;18.556;2022-09-02T10:29:30;0.97;;;0.70;;
20245;SDS011;10281;54.406;18.556;2022-09-02T10:32:17;0.50;;;0.40;;
20245;SDS011;10281;54.406;18.556;2022-09-02T10:34:50;0.80;;;0.70;;
20245;SDS011;10281;54.406;18.556;2022-09-02T10:37:33;0.53;;;0.50;;
20245;SDS011;10281;54.406;18.556;2022-09-02T10:40:11;0.80;;;0.50;;
20245;SDS011;10281;54.406;18.556;2022-09-02T10:42:42;0.53;;;0.50;;
20245;SDS011;10281;54.406;18.556;2022-09-02T10:45:15;0.70;;;0.63;;
20245;SDS011;10281;54.406;18.556;2022-09-02T10:47:57;0.57;;;0.57;;
20245;SDS011;10281;54.406;18.556;2022-09-02T10:50:38;0.50;;;0.50;;
20245;SDS011;10281;54.406;18.556;2022-09-02T10:53:20;1.00;;;0.50;;
20245;SDS011;10281;54.406;18.556;2022-09-02T10:56:07;0.90;;;0.60;;
20245;SDS011;10281;54.406;18.556;2022-09-02T10:58:47;1.47;;;0.40;;
20245;SDS011;10281;54.406;18.556;2022-09-02T11:01:17;1.23;;;0.70;;
20245;SDS011;10281;54.406;18.556;2022-09-02T11:03:50;0.93;;;0.50;;
20245;SDS011;10281;54.406;18.556;2022-09-02T11:06:28;0.50;;;0.50;;
20245;SDS011;10281;54.406;18.556;2022-09-02T11:08:59;0.40;;;0.40;;
20245;SDS011;10281;54.406;18.556;2022-09-02T11:11:38;2.27;;;0.50;;
20245;SDS011;10281;54.406;18.556;2022-09-02T11:14:15;0.97;;;0.60;;
20245;SDS011;10281;54.406;18.556;2022-09-02T11:16:46;0.50;;;0.50;;
20245;SDS011;10281;54.406;18.556;2022-09-02T11:19:21;0.87;;;0.60;;
20245;SDS011;10281;54.406;18.556;2022-09-02T11:21:56;1.07;;;0.60;;
20245;SDS011;10281;54.406;18.556;2022-09-02T11:24:27;0.63;;;0.40;;
20245;SDS011;10281;54.406;18.556;2022-09-02T11:32:36;0.63;;;0.63;;
20245;SDS011;10281;54.406;18.556;2022-09-02T11:35:09;1.23;;;0.40;;
20245;SDS011;10281;54.406;18.556;2022-09-02T11:37:42;1.60;;;0.60;;
20245;SDS011;10281;54.406;18.556;2022-09-02T11:40:16;1.70;;;0.50;;
20245;SDS011;10281;54.406;18.556;2022-09-02T11:45:28;0.60;;;0.50;;
20245;SDS011;10281;54.406;18.556;2022-09-02T11:48:21;0.70;;;0.50;;
20245;SDS011;10281;54.406;18.556;2022-09-02T11:51:04;0.77;;;0.50;;
20245;SDS011;10281;54.406;18.556;2022-09-02T11:53:36;0.50;;;0.50;;
20245;SDS011;10281;54.406;18.556;2022-09-02T11:56:10;1.10;;;0.50;;
20245;SDS011;10281;54.406;18.556;2022-09-02T11:58:40;0.53;;;0.47;;
20245;SDS011;10281;54.406;18.556;2022-09-02T12:01:21;0.80;;;0.50;;
20245;SDS011;10281;54.406;18.556;2022-09-02T12:03:56;0.60;;;0.60;;
20245;SDS011;10281;54.406;18.556;2022-09-02T12:06:27;0.50;;;0.50;;
20245;SDS011;10281;54.406;18.556;2022-09-02T12:08:55;0.70;;;0.50;;
20245;SDS011;10281;54.406;18.556;2022-09-02T12:11:44;0.50;;;0.50;;
20245;SDS011;10281;54.406;18.556;2022-09-02T12:20:03;0.30;;;0.30;;
20245;SDS011;10281;54.406;18.556;2022-09-02T12:22:34;0.40;;;0.40;;
20245;SDS011;10281;54.406;18.556;2022-09-02T12:25:32;0.73;;;0.70;;
20245;SDS011;10281;54.406;18.556;2022-09-02T12:27:39;1.23;;;0.63;;
20245;SDS011;10281;54.406;18.556;2022-09-02T12:30:06;1.50;;;0.63;;
20245;SDS011;10281;54.406;18.556;2022-09-02T12:35:33;0.80;;;0.50;;
20245;SDS011;10281;54.406;18.556;2022-09-02T12:38:20;2.43;;;0.60;;
20245;SDS011;10281;54.406;18.556;2022-09-02T12:40:53;1.23;;;0.50;;
20245;SDS011;10281;54.406;18.556;2022-09-02T12:43:24;0.40;;;0.40;;
20245;SDS011;10281;54.406;18.556;2022-09-02T12:45:52;0.43;;;0.43;;
20245;SDS011;10281;54.406;18.556;2022-09-02T12:48:24;0.57;;;0.50;;
20245;SDS011;10281;54.406;18.556;2022-09-02T12:50:54;0.40;;;0.40;;
20245;SDS011;10281;54.406;18.556;2022-09-02T12:53:30;0.70;;;0.70;;
20245;SDS011;10281;54.406;18.556;2022-09-02T12:56:01;1.63;;;0.60;;
20245;SDS011;10281;54.406;18.556;2022-09-02T12:58:34;0.70;;;0.60;;
20245;SDS011;10281;54.406;18.556;2022-09-02T13:01:13;1.53;;;0.70;;
20245;SDS011;10281;54.406;18.556;2022-09-02T13:03:48;0.60;;;0.60;;
20245;SDS011;10281;54.406;18.556;2022-09-02T13:06:29;0.70;;;0.40;;
20245;SDS011;10281;54.406;18.556;2022-09-02T13:09:04;0.40;;;0.40;;
20245;SDS011;10281;54.406;18.556;2022-09-02T13:19:51;1.10;;;0.50;;
20245;SDS011;10281;54.406;18.556;2022-09-02T13:28:31;1.80;;;0.60;;
20245;SDS011;10281;54.406;18.556;2022-09-02T13:31:10;0.50;;;0.50;;
20245;SDS011;10281;54.406;18.556;2022-09-02T13:33:39;1.03;;;0.60;;
20245;SDS011;10281;54.406;18.556;2022-09-02T13:36:07;0.33;;;0.33;;
20245;SDS011;10281;54.406;18.556;2022-09-02T13:38:34;2.57;;;0.70;;
20245;SDS011;10281;54.406;18.556;2022-09-02T13:41:02;1.60;;;0.60;;
20245;SDS011;10281;54.406;18.556;2022-09-02T13:43:29;1.23;;;0.63;;
20245;SDS011;10281;54.406;18.556;2022-09-02T13:45:58;0.80;;;0.40;;
20245;SDS011;10281;54.406;18.556;2022-09-02T13:48:26;0.60;;;0.60;;
20245;SDS011;10281;54.406;18.556;2022-09-02T13:50:58;0.53;;;0.50;;
20245;SDS011;10281;54.406;18.556;2022-09-02T13:53:31;0.70;;;0.70;;
20245;SDS011;10281;54.406;18.556;2022-09-02T13:56:00;0.60;;;0.50;;
20245;SDS011;10281;54.406;18.556;2022-09-02T13:58:32;0.40;;;0.40;;
20245;SDS011;10281;54.406;18.556;2022-09-02T14:03:44;1.30;;;0.53;;
20245;SDS011;10281;54.406;18.556;2022-09-02T14:06:13;0.50;;;0.50;;
20245;SDS011;10281;54.406;18.556;2022-09-02T14:08:41;0.50;;;0.50;;
20245;SDS011;10281;54.406;18.556;2022-09-02T14:11:13;0.37;;;0.33;;
20245;SDS011;10281;54.406;18.556;2022-09-02T14:13:42;0.90;;;0.50;;
20245;SDS011;10281;54.406;18.556;2022-09-02T14:21:32;0.80;;;0.50;;
20245;SDS011;10281;54.406;18.556;2022-09-02T14:24:00;0.60;;;0.60;;
20245;SDS011;10281;54.406;18.556;2022-09-02T14:26:31;0.73;;;0.50;;
20245;SDS011;10281;54.406;18.556;2022-09-02T14:28:59;0.53;;;0.53;;
20245;SDS011;10281;54.406;18.556;2022-09-02T14:31:27;0.70;;;0.57;;
20245;SDS011;10281;54.406;18.556;2022-09-02T14:34:00;0.60;;;0.50;;
20245;SDS011;10281;54.406;18.556;2022-09-02T14:36:31;0.50;;;0.50;;
20245;SDS011;10281;54.406;18.556;2022-09-02T14:41:34;0.57;;;0.40;;
20245;SDS011;10281;54.406;18.556;2022-09-02T14:46:44;1.23;;;0.60;;
20245;SDS011;10281;54.406;18.556;2022-09-02T14:49:21;1.37;;;0.70;;
20245;SDS011;10281;54.406;18.556;2022-09-02T14:51:54;0.57;;;0.40;;
20245;SDS011;10281;54.406;18.556;2022-09-02T14:57:20;0.80;;;0.53;;
20245;SDS011;10281;54.406;18.556;2022-09-02T14:59:49;0.90;;;0.50;;
20245;SDS011;10281;54.406;18.556;2022-09-02T15:02:20;0.77;;;0.50;;
20245;SDS011;10281;54.406;18.556;2022-09-02T15:04:49;0.70;;;0.50;;
20245;SDS011;10281;54.406;18.556;2022-09-02T15:07:16;1.40;;;0.60;;
20245;SDS011;10281;54.406;18.556;2022-09-02T15:09:42;1.07;;;0.60;;
20245;SDS011;10281;54.406;18.556;2022-09-02T15:12:11;0.63;;;0.57;;
20245;SDS011;10281;54.406;18.556;2022-09-02T15:14:39;0.83;;;0.50;;
20245;SDS011;10281;54.406;18.556;2022-09-02T15:17:08;0.80;;;0.50;;
20245;SDS011;10281;54.406;18.556;2022-09-02T15:19:37;1.70;;;0.50;;
20245;SDS011;10281;54.406;18.556;2022-09-02T15:22:03;0.83;;;0.60;;
20245;SDS011;10281;54.406;18.556;2022-09-02T15:24:30;0.70;;;0.70;;
20245;SDS011;10281;54.406;18.556;2022-09-02T15:26:57;2.87;;;1.30;;
20245;SDS011;10281;54.406;18.556;2022-09-02T15:29:23;0.70;;;0.67;;
20245;SDS011;10281;54.406;18.556;2022-09-02T15:31:51;0.87;;;0.50;;
20245;SDS011;10281;54.406;18.556;2022-09-02T15:34:20;0.80;;;0.60;;
20245;SDS011;10281;54.406;18.556;2022-09-02T15:36:47;0.50;;;0.50;;
20245;SDS011;10281;54.406;18.556;2022-09-02T15:39:14;0.67;;;0.47;;
20245;SDS011;10281;54.406;18.556;2022-09-02T15:41:43;1.03;;;0.53;;
20245;SDS011;10281;54.406;18.556;2022-09-02T15:44:10;0.43;;;0.43;;
20245;SDS011;10281;54.406;18.556;2022-09-02T15:46:37;0.70;;;0.50;;
20245;SDS011;10281;54.406;18.556;2022-09-02T15:49:06;1.70;;;0.60;;
20245;SDS011;10281;54.406;18.556;2022-09-02T15:51:34;1.23;;;0.70;;
20245;SDS011;10281;54.406;18.556;2022-09-02T15:54:05;0.57;;;0.57;;
20245;SDS011;10281;54.406;18.556;2022-09-02T15:56:34;1.50;;;0.60;;
20245;SDS011;10281;54.406;18.556;2022-09-02T15:59:04;1.80;;;0.50;;
20245;SDS011;10281;54.406;18.556;2022-09-02T16:01:36;1.80;;;0.67;;